Time;durP1;ratioP1;P1;durP2;ratioP2;P2;SDS_P1;SDS_P2;PMS_P1;PMS_P2;Temp;Humidity;BMP_temperature;BMP_pressure;BME280_temperature;BME280_humidity;BME280_pressure;Samples;Min_cycle;Max_cycle;Signal;HPM_P1;HPM_P2
2021/01/02 00:00:50;;;;;;;15.23;5.93;;;6.60;90.60;;;;;;5011636;28;20014;-76
2021/01/02 00:03:50;;;;;;;18.50;5.82;;;6.60;90.60;;;;;;5012406;28;20107;-75
2021/01/02 00:06:28;;;;;;;12.63;5.03;;;6.70;90.60;;;;;;5027373;28;20022;-75
2021/01/02 00:09:05;;;;;;;14.20;6.68;;;6.60;90.50;;;;;;5011634;28;20030;-74
2021/01/02 00:11:50;;;;;;;22.67;5.95;;;6.70;90.50;;;;;;5011980;28;20030;-74
2021/01/02 00:14:25;;;;;;;13.18;5.30;;;6.60;90.50;;;;;;5012035;28;20018;-74
2021/01/02 00:17:10;;;;;;;14.68;5.55;;;6.60;90.60;;;;;;5011576;28;20022;-75
2021/01/02 00:20:29;;;;;;;12.70;5.90;;;6.60;90.60;;;;;;5010678;28;20049;-74
2021/01/02 00:22:57;;;;;;;16.25;6.45;;;6.60;90.50;;;;;;4994722;28;20478;-75
2021/01/02 00:25:27;;;;;;;13.68;5.50;;;6.50;90.50;;;;;;5026707;28;20014;-75
2021/01/02 00:28:18;;;;;;;13.27;6.15;;;6.50;90.60;;;;;;5011280;28;20474;-75
2021/01/02 00:30:47;;;;;;;16.13;5.63;;;6.50;90.50;;;;;;5011620;28;20022;-75
2021/01/02 00:33:28;;;;;;;17.02;6.32;;;6.40;90.60;;;;;;5009980;28;20025;-75
2021/01/02 00:36:13;;;;;;;17.58;7.00;;;6.50;90.60;;;;;;5026368;28;20103;-75
2021/01/02 00:38:39;;;;;;;15.85;7.10;;;6.40;90.50;;;;;;5026965;28;20029;-74
2021/01/02 00:41:09;;;;;;;13.77;5.65;;;6.40;90.60;;;;;;5011279;28;20022;-75
2021/01/02 00:43:36;;;;;;;15.70;6.38;;;6.40;90.60;;;;;;5027549;28;20041;-74
2021/01/02 00:46:02;;;;;;;17.25;6.28;;;6.40;90.60;;;;;;5009968;28;20100;-75
2021/01/02 00:48:31;;;;;;;18.70;6.63;;;6.40;90.60;;;;;;5013853;28;20026;-74
2021/01/02 00:51:02;;;;;;;16.70;6.88;;;6.40;90.50;;;;;;5012403;28;20021;-75
2021/01/02 00:53:46;;;;;;;21.48;7.00;;;6.40;90.60;;;;;;5012701;28;20021;-75
2021/01/02 00:56:29;;;;;;;17.05;6.90;;;6.50;90.60;;;;;;5014592;28;20084;-75
2021/01/02 00:59:23;;;;;;;18.63;6.05;;;6.50;90.60;;;;;;5029728;28;20018;-75
2021/01/02 01:02:31;;;;;;;21.35;7.57;;;6.50;90.60;;;;;;5015070;28;20029;-74
2021/01/02 01:05:20;;;;;;;19.75;6.65;;;6.40;90.50;;;;;;4987075;28;20061;-74
2021/01/02 01:07:52;;;;;;;17.20;7.40;;;6.40;90.50;;;;;;5008244;28;20430;-75
2021/01/02 01:10:20;;;;;;;;;;;6.40;90.60;;;;;;5030046;28;20026;-75
2021/01/02 01:12:53;;;;;;;18.15;5.55;;;6.40;90.60;;;;;;5013473;28;19907;-75
2021/01/02 01:15:19;;;;;;;16.92;6.15;;;6.40;90.60;;;;;;5029956;28;20455;-75
2021/01/02 01:18:11;;;;;;;17.35;5.95;;;6.50;90.80;;;;;;5014696;28;20072;-75
2021/01/02 01:20:43;;;;;;;19.85;7.18;;;6.50;90.50;;;;;;4988987;28;20034;-75
2021/01/02 01:23:36;;;;;;;16.92;7.13;;;6.50;90.50;;;;;;5013843;28;20399;-75
2021/01/02 01:26:30;;;;;;;16.60;6.15;;;6.50;90.50;;;;;;5012842;28;20116;-75
2021/01/02 01:28:57;;;;;;;14.65;6.63;;;6.50;90.50;;;;;;5013852;28;20083;-75
2021/01/02 01:31:24;;;;;;;14.27;6.20;;;6.50;90.50;;;;;;5013250;28;20026;-74
2021/01/02 01:33:52;;;;;;;16.58;7.00;;;6.50;90.50;;;;;;5014409;28;20041;-74
2021/01/02 01:36:21;;;;;;;14.95;6.70;;;6.50;90.80;;;;;;5013892;28;20022;-75
2021/01/02 01:38:55;;;;;;;14.55;6.72;;;6.50;90.50;;;;;;5014350;28;20029;-75
2021/01/02 01:41:36;;;;;;;14.85;6.57;;;6.50;90.60;;;;;;5014078;28;20459;-75
2021/01/02 01:44:10;;;;;;;18.77;7.00;;;6.50;90.50;;;;;;5013390;28;20042;-75
2021/01/02 01:46:45;;;;;;;22.33;7.50;;;6.50;90.50;;;;;;5012764;28;20022;-75
2021/01/02 01:49:23;;;;;;;17.85;5.75;;;6.50;90.50;;;;;;5013668;28;20034;-75
2021/01/02 01:51:56;;;;;;;15.35;5.90;;;6.50;90.50;;;;;;5029463;28;20025;-75
2021/01/02 01:54:45;;;;;;;14.00;6.13;;;6.40;90.50;;;;;;5013779;28;20379;-75
2021/01/02 01:57:21;;;;;;;15.45;6.15;;;6.40;90.50;;;;;;5013663;28;20034;-74
2021/01/02 01:59:58;;;;;;;14.15;6.47;;;6.50;90.60;;;;;;5013734;28;20562;-74
2021/01/02 02:02:39;;;;;;;17.40;7.50;;;6.50;90.50;;;;;;5012496;28;20112;-75
2021/01/02 02:05:08;;;;;;;17.05;6.25;;;6.40;90.40;;;;;;5013376;28;20097;-74
2021/01/02 02:07:58;;;;;;;15.75;5.85;;;6.30;90.50;;;;;;5013418;28;20080;-74
2021/01/02 02:10:46;;;;;;;21.50;7.97;;;6.40;90.50;;;;;;5012723;28;20033;-74
2021/01/02 02:13:29;;;;;;;15.25;8.02;;;6.30;90.40;;;;;;5028380;28;20060;-74
2021/01/02 02:15:56;;;;;;;17.65;6.82;;;6.30;90.50;;;;;;5028778;28;20017;-74
2021/01/02 02:18:29;;;;;;;17.88;9.15;;;6.30;90.50;;;;;;5013213;28;20057;-74
2021/01/02 02:20:57;;;;;;;15.90;7.82;;;6.30;90.40;;;;;;5028621;28;20105;-75
2021/01/02 02:23:56;;;;;;;16.45;6.35;;;6.20;90.50;;;;;;5012582;28;20022;-75
2021/01/02 02:26:36;;;;;;;17.50;7.53;;;6.10;90.50;;;;;;5012547;28;20108;-75
2021/01/02 02:29:22;;;;;;;16.30;7.13;;;6.10;90.50;;;;;;5011347;28;20034;-76
2021/01/02 02:31:48;;;;;;;22.58;6.40;;;6.10;90.60;;;;;;5011841;28;20018;-75
2021/01/02 02:34:15;;;;;;;13.52;5.57;;;6.10;90.60;;;;;;5013376;28;20018;-76
2021/01/02 02:36:41;;;;;;;19.80;7.35;;;6.10;90.50;;;;;;5013271;28;20104;-76
2021/01/02 02:39:10;;;;;;;19.95;7.90;;;6.10;90.50;;;;;;5011324;28;20014;-75
2021/01/02 02:41:44;;;;;;;19.40;7.53;;;6.10;90.50;;;;;;5013067;28;20469;-75
2021/01/02 02:44:10;;;;;;;17.33;8.05;;;6.10;90.50;;;;;;5008132;28;20349;-74
2021/01/02 02:46:43;;;;;;;16.88;7.07;;;6.20;90.50;;;;;;5008886;28;20030;-75
2021/01/02 02:49:11;;;;;;;22.63;8.63;;;6.20;90.40;;;;;;4993250;28;20022;-75
2021/01/02 02:51:51;;;;;;;19.65;8.02;;;6.30;90.30;;;;;;4993435;28;20022;-74
2021/01/02 02:54:18;;;;;;;19.15;6.88;;;6.20;90.30;;;;;;4992709;28;20026;-75
2021/01/02 02:56:44;;;;;;;16.98;6.35;;;6.20;90.40;;;;;;5009060;28;20018;-75
2021/01/02 02:59:11;;;;;;;16.27;6.05;;;6.20;90.40;;;;;;4994153;28;20018;-76
2021/01/02 03:01:37;;;;;;;17.65;6.30;;;6.20;90.30;;;;;;5010383;28;20117;-75
2021/01/02 03:04:02;;;;;;;15.35;6.35;;;6.20;90.30;;;;;;4994498;28;20057;-77
2021/01/02 03:06:32;;;;;;;16.05;6.57;;;6.30;90.30;;;;;;4992029;28;20022;-75
2021/01/02 03:08:58;;;;;;;18.15;7.35;;;6.30;90.60;;;;;;4993188;28;20023;-75
2021/01/02 03:11:25;;;;;;;20.30;7.25;;;6.30;90.30;;;;;;4992434;28;20022;-75
2021/01/02 03:13:52;;;;;;;15.07;6.93;;;6.30;90.30;;;;;;4993012;28;20018;-76
2021/01/02 03:16:19;;;;;;;18.40;6.00;;;6.30;90.30;;;;;;4991611;28;20138;-75
2021/01/02 03:18:45;;;;;;;13.70;6.07;;;6.30;90.30;;;;;;4993024;28;20057;-76
2021/01/02 03:21:11;;;;;;;16.55;6.25;;;6.30;90.40;;;;;;5007476;28;20022;-76
2021/01/02 03:23:45;;;;;;;16.98;6.28;;;6.30;90.40;;;;;;5007931;28;20021;-76
2021/01/02 03:26:11;;;;;;;14.48;6.75;;;6.30;90.40;;;;;;4992166;28;20015;-76
2021/01/02 03:28:36;;;;;;;17.65;6.18;;;6.30;90.40;;;;;;4992640;28;20022;-76
2021/01/02 03:31:03;;;;;;;16.90;6.78;;;6.20;90.40;;;;;;4992446;28;20022;-75
2021/01/02 03:33:29;;;;;;;13.70;5.65;;;6.20;90.40;;;;;;5007884;28;20479;-76
2021/01/02 03:36:01;;;;;;;15.82;6.97;;;6.20;90.40;;;;;;4992852;28;20018;-76
2021/01/02 03:38:33;;;;;;;17.33;6.00;;;6.30;90.50;;;;;;4991857;28;20023;-76
2021/01/02 03:40:59;;;;;;;15.27;6.13;;;6.30;90.40;;;;;;4992785;28;20019;-75
2021/01/02 03:43:25;;;;;;;18.65;6.72;;;6.30;90.40;;;;;;5002192;28;20489;-76
2021/01/02 03:45:52;;;;;;;15.63;5.72;;;6.30;90.40;;;;;;5027488;28;20014;-76
2021/01/02 03:48:18;;;;;;;18.80;5.85;;;6.30;90.40;;;;;;5010323;28;20076;-76
2021/01/02 03:50:43;;;;;;;21.67;6.65;;;6.30;90.30;;;;;;5027354;28;20394;-76
2021/01/02 03:53:09;;;;;;;18.67;6.75;;;6.30;90.30;;;;;;5011960;28;20014;-75
2021/01/02 03:55:35;;;;;;;17.38;6.78;;;6.40;90.30;;;;;;5012312;28;20021;-75
2021/01/02 03:58:00;;;;;;;17.65;6.57;;;6.40;90.20;;;;;;5011220;28;20025;-73
2021/01/02 04:00:26;;;;;;;17.15;7.15;;;6.40;90.20;;;;;;5011626;28;20443;-73
2021/01/02 04:02:52;;;;;;;16.40;6.90;;;6.40;90.20;;;;;;5012077;28;20033;-74
2021/01/02 04:05:18;;;;;;;16.98;5.72;;;6.40;90.10;;;;;;5011560;28;20021;-76
2021/01/02 04:07:44;;;;;;;14.65;6.47;;;6.40;90.10;;;;;;5027183;28;20470;-74
2021/01/02 04:10:10;;;;;;;14.35;5.97;;;6.40;90.20;;;;;;5011252;28;20026;-74
2021/01/02 04:12:35;;;;;;;19.23;7.22;;;6.40;90.20;;;;;;5011959;28;20052;-74
2021/01/02 04:15:01;;;;;;;19.90;6.72;;;6.40;90.20;;;;;;5011792;28;20105;-75
2021/01/02 04:17:27;;;;;;;19.30;8.35;;;6.40;90.10;;;;;;5010090;28;20862;-74
2021/01/02 04:19:53;;;;;;;17.58;7.30;;;6.40;90.30;;;;;;5027126;28;20025;-75
2021/01/02 04:22:19;;;;;;;20.35;7.30;;;6.30;90.10;;;;;;5026650;28;20406;-74
2021/01/02 04:24:44;;;;;;;17.55;6.05;;;6.30;90.10;;;;;;5027059;28;20455;-75
2021/01/02 04:27:10;;;;;;;14.75;6.95;;;6.30;90.10;;;;;;5013403;28;20078;-76
2021/01/02 04:29:36;;;;;;;17.73;7.78;;;6.20;90.20;;;;;;5015330;28;20101;-75
2021/01/02 04:32:02;;;;;;;20.40;8.30;;;6.20;90.20;;;;;;5030855;28;20022;-75
2021/01/02 04:34:28;;;;;;;17.23;7.05;;;6.20;90.10;;;;;;5014961;28;20377;-75
2021/01/02 04:36:53;;;;;;;17.08;8.07;;;6.30;90.10;;;;;;5015541;28;20030;-75
2021/01/02 04:39:20;;;;;;;14.13;7.00;;;6.20;90.00;;;;;;5013683;28;20033;-75
2021/01/02 04:41:46;;;;;;;21.27;8.18;;;6.20;90.00;;;;;;5015723;28;20080;-75
2021/01/02 04:44:14;;;;;;;20.77;7.85;;;6.10;90.00;;;;;;5014728;28;20148;-75
2021/01/02 04:46:43;;;;;;;19.40;8.52;;;6.20;90.20;;;;;;5030370;28;20029;-75
2021/01/02 04:49:09;;;;;;;18.83;8.13;;;6.10;90.00;;;;;;5030182;28;20509;-81
2021/01/02 04:51:35;;;;;;;20.02;7.13;;;6.20;90.00;;;;;;5015391;28;20025;-75
2021/01/02 04:54:05;;;;;;;16.13;7.10;;;6.20;89.90;;;;;;5015491;28;20018;-75
2021/01/02 04:56:36;;;;;;;17.30;7.28;;;6.20;89.80;;;;;;5029723;28;20022;-75
2021/01/02 04:59:07;;;;;;;19.93;7.40;;;6.20;89.60;;;;;;5030190;28;20474;-75
2021/01/02 05:01:36;;;;;;;19.02;7.85;;;6.10;89.80;;;;;;5014290;28;20249;-75
2021/01/02 05:04:01;;;;;;;19.80;7.63;;;6.10;89.90;;;;;;5015241;28;20099;-74
2021/01/02 05:06:27;;;;;;;17.45;7.80;;;6.10;90.00;;;;;;5014212;28;20474;-75
2021/01/02 05:08:53;;;;;;;20.73;8.63;;;6.10;90.00;;;;;;5014839;28;20100;-74
2021/01/02 05:11:19;;;;;;;18.77;6.97;;;6.10;89.90;;;;;;5016175;28;20462;-74
2021/01/02 05:13:46;;;;;;;20.85;7.53;;;6.10;89.80;;;;;;5017222;28;20018;-74
2021/01/02 05:16:27;;;;;;;23.45;8.45;;;6.20;89.90;;;;;;5017550;28;20133;-81
2021/01/02 05:18:57;;;;;;;;;;;6.20;89.90;;;;;;5034353;28;20018;-74
2021/01/02 05:21:24;;;;;;;17.52;6.53;;;6.10;89.80;;;;;;5012986;28;19907;-74
2021/01/02 05:24:02;;;;;;;20.05;8.40;;;6.10;90.00;;;;;;5013438;28;20014;-74
2021/01/02 05:26:28;;;;;;;15.95;7.35;;;6.20;89.90;;;;;;5014198;28;20025;-75
2021/01/02 05:29:17;;;;;;;20.83;8.65;;;6.00;89.60;;;;;;5014454;28;20109;-74
2021/01/02 05:31:54;;;;;;;20.85;8.13;;;5.90;89.90;;;;;;5013442;28;20030;-74
2021/01/02 05:34:22;;;;;;;21.80;9.43;;;5.80;90.00;;;;;;5014057;28;20101;-74
2021/01/02 05:37:07;;;;;;;19.30;8.00;;;5.80;90.10;;;;;;5013869;28;20084;-74
2021/01/02 05:39:49;;;;;;;22.40;7.65;;;5.90;90.10;;;;;;5028297;28;20092;-74
2021/01/02 05:42:16;;;;;;;16.73;7.78;;;5.90;90.00;;;;;;5013803;28;20456;-75
2021/01/02 05:44:42;;;;;;;19.95;8.90;;;5.90;90.00;;;;;;5014429;28;20046;-74
2021/01/02 05:47:12;;;;;;;17.63;8.25;;;5.80;90.00;;;;;;5014344;28;20026;-74
2021/01/02 05:49:47;;;;;;;21.40;7.82;;;5.80;90.10;;;;;;5013772;28;20045;-74
2021/01/02 05:52:14;;;;;;;21.33;8.23;;;5.80;90.10;;;;;;5013942;28;20521;-75
2021/01/02 05:54:51;;;;;;;18.40;7.35;;;5.80;90.10;;;;;;5012994;28;20037;-74
2021/01/02 05:57:30;;;;;;;21.63;7.57;;;5.90;90.10;;;;;;5028566;28;20079;-75
2021/01/02 05:59:59;;;;;;;23.05;8.50;;;5.90;90.00;;;;;;5028981;28;20022;-75
2021/01/02 06:02:29;;;;;;;25.50;9.95;;;5.80;90.00;;;;;;5013302;28;20022;-75
2021/01/02 06:04:55;;;;;;;28.48;10.75;;;5.80;90.10;;;;;;5029136;28;20014;-75
2021/01/02 06:07:21;;;;;;;20.23;9.73;;;5.70;90.00;;;;;;5011858;28;20418;-75
2021/01/02 06:09:47;;;;;;;19.70;9.25;;;5.70;90.00;;;;;;5013392;28;20470;-74
2021/01/02 06:12:24;;;;;;;21.00;8.75;;;5.70;90.00;;;;;;5013448;28;20029;-74
2021/01/02 06:14:54;;;;;;;16.63;8.50;;;5.70;90.30;;;;;;5013650;28;20037;-74
2021/01/02 06:17:46;;;;;;;20.07;8.93;;;5.70;90.00;;;;;;5012708;28;20022;-75
2021/01/02 06:20:14;;;;;;;23.55;9.43;;;5.70;89.90;;;;;;5011049;28;20269;-75
2021/01/02 06:22:42;;;;;;;21.35;10.55;;;5.70;90.00;;;;;;5012854;28;20022;-75
2021/01/02 06:25:09;;;;;;;21.90;8.20;;;5.70;90.00;;;;;;5013445;28;20022;-75
2021/01/02 06:27:39;;;;;;;20.02;10.10;;;5.60;90.00;;;;;;5012713;28;20030;-75
2021/01/02 06:30:05;;;;;;;27.38;10.57;;;5.60;90.10;;;;;;5013372;28;20026;-75
2021/01/02 06:32:32;;;;;;;23.13;9.52;;;5.60;90.10;;;;;;5027578;28;20029;-76
2021/01/02 06:35:10;;;;;;;22.77;9.38;;;5.60;90.10;;;;;;5013204;28;20026;-76
2021/01/02 06:37:50;;;;;;;18.17;8.63;;;5.60;90.20;;;;;;5011330;28;20088;-76
2021/01/02 06:40:20;;;;;;;23.40;8.07;;;5.60;90.10;;;;;;5011845;28;20026;-75
2021/01/02 06:43:03;;;;;;;21.20;9.10;;;5.60;90.20;;;;;;5013161;28;20022;-76
2021/01/02 06:45:49;;;;;;;18.50;8.75;;;5.60;90.10;;;;;;5012413;28;20382;-75
2021/01/02 06:48:24;;;;;;;22.85;9.02;;;5.60;90.10;;;;;;5005720;28;20120;-74
2021/01/02 06:50:51;;;;;;;22.83;9.23;;;5.50;90.20;;;;;;5011236;28;20017;-75
2021/01/02 06:53:22;;;;;;;23.20;8.55;;;5.60;90.20;;;;;;5012747;28;20024;-75
2021/01/02 06:56:00;;;;;;;25.13;8.23;;;5.70;90.20;;;;;;5027868;28;20049;-74
2021/01/02 06:58:34;;;;;;;21.33;8.48;;;5.70;90.20;;;;;;5011105;28;20216;-74
2021/01/02 07:01:00;;;;;;;18.70;9.20;;;5.70;90.10;;;;;;5012922;28;20022;-75
2021/01/02 07:03:44;;;;;;;20.95;9.48;;;5.60;90.10;;;;;;5012422;28;20032;-75
2021/01/02 07:08:59;;;;;;;22.45;8.13;;;5.70;90.20;;;;;;5012730;28;20471;-75
2021/01/02 07:11:36;;;;;;;27.05;11.20;;;5.70;90.10;;;;;;5011131;28;20398;-76
2021/01/02 07:14:08;;;;;;;21.40;9.48;;;5.70;90.00;;;;;;5012760;28;20022;-75
2021/01/02 07:16:46;;;;;;;27.10;9.43;;;5.60;90.10;;;;;;5011879;28;20026;-75
2021/01/02 07:19:30;;;;;;;32.78;11.02;;;5.70;90.10;;;;;;5012590;28;20028;-76
2021/01/02 07:22:04;;;;;;;23.05;9.13;;;5.60;90.20;;;;;;5012589;28;20022;-76
2021/01/02 07:24:46;;;;;;;23.45;8.63;;;5.60;90.20;;;;;;5012088;28;20104;-76
2021/01/02 07:27:13;;;;;;;21.77;9.43;;;5.50;90.20;;;;;;5011309;28;20383;-76
2021/01/02 07:29:44;;;;;;;26.67;9.50;;;5.50;90.20;;;;;;5012790;28;20405;-75
2021/01/02 07:32:30;;;;;;;26.92;9.82;;;5.50;90.30;;;;;;5028259;28;20014;-75
2021/01/02 07:34:58;;;;;;;23.73;9.23;;;5.50;90.30;;;;;;5029729;28;20391;-75
2021/01/02 07:37:30;;;;;;;26.65;9.27;;;5.50;90.40;;;;;;5012072;28;20025;-76
2021/01/02 07:39:57;;;;;;;22.23;9.73;;;5.50;90.40;;;;;;5012457;28;20026;-75
2021/01/02 07:42:25;;;;;;;25.25;9.35;;;5.50;90.40;;;;;;5012043;28;20032;-76
2021/01/02 07:45:04;;;;;;;29.52;10.55;;;5.50;90.40;;;;;;5027546;28;20069;-75
2021/01/02 07:47:30;;;;;;;22.92;9.05;;;5.50;90.40;;;;;;5011974;28;20159;-76
2021/01/02 07:50:07;;;;;;;23.88;9.25;;;5.50;90.40;;;;;;5012393;28;20058;-75
2021/01/02 07:52:33;;;;;;;25.52;10.10;;;5.50;90.40;;;;;;5011411;28;20030;-76
2021/01/02 07:55:06;;;;;;;24.13;8.23;;;5.50;90.40;;;;;;5011816;28;20050;-76
2021/01/02 07:57:31;;;;;;;21.73;9.52;;;5.60;90.40;;;;;;5011920;28;20018;-75
2021/01/02 07:59:57;;;;;;;26.95;9.50;;;5.60;90.30;;;;;;5012211;28;20100;-75
2021/01/02 08:02:26;;;;;;;31.27;9.95;;;5.70;90.30;;;;;;5014852;28;20026;-75
2021/01/02 08:04:53;;;;;;;25.60;8.65;;;5.70;90.30;;;;;;5015819;28;20018;-76
2021/01/02 08:07:19;;;;;;;24.42;10.60;;;5.70;90.30;;;;;;5014785;28;20080;-75
2021/01/02 08:09:47;;;;;;;21.38;10.40;;;5.60;90.20;;;;;;5030422;28;20121;-76
2021/01/02 08:12:15;;;;;;;29.13;10.88;;;5.60;90.30;;;;;;5015891;28;20096;-76
2021/01/02 08:14:48;;;;;;;27.17;9.73;;;5.60;90.40;;;;;;5030535;28;20050;-76
2021/01/02 08:17:19;;;;;;;23.52;9.60;;;5.60;90.40;;;;;;5030860;28;20022;-75
2021/01/02 08:19:49;;;;;;;26.42;10.05;;;5.60;90.30;;;;;;5014997;28;20239;-75
2021/01/02 08:22:31;;;;;;;28.33;9.63;;;5.70;90.70;;;;;;5015960;28;20029;-75
2021/01/02 08:24:58;;;;;;;;;;;5.70;90.30;;;;;;5016244;28;20017;-75
2021/01/02 08:27:25;;;;;;;21.35;8.88;;;5.60;90.30;;;;;;5015684;28;19968;-76
2021/01/02 08:29:53;;;;;;;27.10;9.00;;;5.70;90.30;;;;;;5014367;28;20468;-75
2021/01/02 08:32:23;;;;;;;24.20;8.65;;;5.70;90.20;;;;;;5015588;28;20045;-75
2021/01/02 08:34:48;;;;;;;23.02;8.77;;;5.70;90.20;;;;;;5014881;28;20052;-75
2021/01/02 08:37:17;;;;;;;21.58;8.15;;;5.70;90.30;;;;;;5030698;28;20157;-75
2021/01/02 08:39:44;;;;;;;30.63;9.20;;;5.80;90.30;;;;;;5014756;28;20356;-75
2021/01/02 08:42:10;;;;;;;25.17;9.23;;;5.70;90.20;;;;;;5030815;28;20014;-75
2021/01/02 08:44:45;;;;;;;25.25;9.45;;;5.80;90.30;;;;;;5014847;28;20117;-75
2021/01/02 08:47:11;;;;;;;25.35;8.13;;;5.80;90.30;;;;;;5030693;28;20085;-75
2021/01/02 08:49:44;;;;;;;25.48;9.80;;;5.70;90.30;;;;;;5029965;28;20034;-74
2021/01/02 08:52:33;;;;;;;20.48;8.00;;;5.80;90.20;;;;;;5030088;28;20025;-74
2021/01/02 08:55:16;;;;;;;21.60;8.20;;;5.80;90.20;;;;;;4997680;28;20371;-75
2021/01/02 08:57:50;;;;;;;26.30;8.93;;;5.80;90.20;;;;;;5029613;28;20025;-76
2021/01/02 09:00:21;;;;;;;22.17;7.68;;;5.80;90.20;;;;;;5015082;28;20018;-75
2021/01/02 09:03:08;;;;;;;29.03;9.73;;;5.80;90.20;;;;;;5014549;28;20017;-76
2021/01/02 09:05:38;;;;;;;24.73;9.35;;;5.80;90.20;;;;;;5014190;28;20022;-76
2021/01/02 09:08:07;;;;;;;23.00;8.95;;;5.80;90.20;;;;;;5030195;28;20021;-76
2021/01/02 09:10:36;;;;;;;29.95;10.15;;;5.70;90.20;;;;;;5029582;28;20026;-76
2021/01/02 09:13:05;;;;;;;26.55;10.07;;;5.70;90.20;;;;;;5028909;28;20025;-76
2021/01/02 09:15:44;;;;;;;22.42;8.43;;;5.70;90.30;;;;;;5029485;28;20390;-76
2021/01/02 09:18:14;;;;;;;30.20;9.23;;;5.80;90.30;;;;;;5014764;28;20058;-75
2021/01/02 09:20:40;;;;;;;23.42;9.00;;;5.80;90.20;;;;;;5014257;28;20029;-76
2021/01/02 09:23:08;;;;;;;27.75;8.73;;;5.80;90.10;;;;;;5014659;28;20071;-75
2021/01/02 09:25:34;;;;;;;22.63;7.65;;;5.80;90.10;;;;;;5013908;28;20137;-76
2021/01/02 09:28:15;;;;;;;16.15;6.65;;;5.90;90.10;;;;;;5014595;28;20033;-75
2021/01/02 09:30:42;;;;;;;21.90;8.83;;;5.90;90.00;;;;;;5029278;28;20114;-76
2021/01/02 09:33:08;;;;;;;27.50;9.45;;;5.80;90.10;;;;;;5014545;28;20021;-75
2021/01/02 09:35:35;;;;;;;21.67;8.95;;;5.80;90.20;;;;;;5029225;28;20021;-76
2021/01/02 09:38:02;;;;;;;22.67;8.48;;;5.70;90.20;;;;;;5016079;28;20026;-76
2021/01/02 09:40:29;;;;;;;21.98;9.15;;;5.70;90.30;;;;;;5035221;28;20032;-75
2021/01/02 09:42:54;;;;;;;22.88;9.38;;;5.70;90.20;;;;;;5030273;28;20533;-75
2021/01/02 09:45:20;;;;;;;31.83;9.65;;;5.80;90.30;;;;;;5017383;28;20042;-75
2021/01/02 09:47:45;;;;;;;20.90;8.77;;;5.70;90.20;;;;;;5013895;28;20029;-75
2021/01/02 09:50:11;;;;;;;33.63;11.32;;;5.80;90.20;;;;;;5014355;28;20022;-75
2021/01/02 09:52:37;;;;;;;34.80;9.55;;;5.90;90.10;;;;;;5013600;28;20018;-75
2021/01/02 09:55:03;;;;;;;21.08;7.95;;;5.90;90.10;;;;;;5014280;28;20030;-75
2021/01/02 09:57:29;;;;;;;30.25;8.73;;;5.90;90.10;;;;;;5014414;28;20080;-76
2021/01/02 09:59:55;;;;;;;30.02;9.15;;;6.00;90.10;;;;;;5013479;28;20104;-75
2021/01/02 10:02:20;;;;;;;23.30;8.30;;;6.00;90.10;;;;;;5013924;28;20041;-76
2021/01/02 10:04:47;;;;;;;18.15;6.72;;;6.00;90.00;;;;;;5013106;28;20455;-76
2021/01/02 10:07:14;;;;;;;26.73;8.63;;;6.00;90.00;;;;;;5013738;28;20056;-76
2021/01/02 10:09:47;;;;;;;26.67;8.55;;;6.00;90.00;;;;;;5012161;28;20057;-76
2021/01/02 10:12:15;;;;;;;23.67;8.35;;;6.00;90.00;;;;;;5013867;28;20021;-76
2021/01/02 10:14:41;;;;;;;24.50;8.75;;;6.00;90.10;;;;;;5028141;28;20447;-76
2021/01/02 10:17:07;;;;;;;26.27;8.95;;;6.00;90.20;;;;;;5013410;28;20072;-75
2021/01/02 10:19:33;;;;;;;24.58;8.63;;;6.00;90.10;;;;;;5013557;28;20104;-76
2021/01/02 10:22:00;;;;;;;30.77;10.57;;;6.00;90.10;;;;;;5028496;28;20054;-75
2021/01/02 10:24:26;;;;;;;27.55;9.63;;;6.00;90.00;;;;;;5013405;28;20031;-76
2021/01/02 10:26:52;;;;;;;28.17;11.75;;;6.00;90.00;;;;;;5013104;28;20034;-76
2021/01/02 10:29:18;;;;;;;25.65;11.10;;;5.90;90.10;;;;;;5013605;28;20025;-76
2021/01/02 10:31:44;;;;;;;27.20;9.35;;;6.00;90.10;;;;;;5027957;28;20467;-76
2021/01/02 10:34:10;;;;;;;27.27;9.82;;;6.00;90.00;;;;;;5028494;28;20022;-75
2021/01/02 10:36:35;;;;;;;30.05;9.93;;;6.10;90.00;;;;;;5012530;28;20026;-80
2021/01/02 10:39:02;;;;;;;25.20;8.40;;;6.10;89.90;;;;;;5013248;28;20026;-75
2021/01/02 10:41:27;;;;;;;26.13;8.68;;;6.20;89.80;;;;;;5028230;28;20021;-76
2021/01/02 10:43:53;;;;;;;27.08;8.98;;;6.20;89.70;;;;;;5012475;28;20050;-75
2021/01/02 10:46:19;;;;;;;28.42;9.23;;;6.20;89.60;;;;;;5013302;28;20042;-75
2021/01/02 10:48:45;;;;;;;27.15;9.23;;;6.10;89.60;;;;;;5012520;28;20038;-75
2021/01/02 10:51:16;;;;;;;24.33;9.27;;;6.10;89.90;;;;;;5013118;28;20022;-76
2021/01/02 10:53:41;;;;;;;29.67;9.38;;;6.00;90.00;;;;;;5012237;28;20463;-76
2021/01/02 10:56:12;;;;;;;31.33;7.53;;;6.00;90.00;;;;;;5011749;28;20045;-76
2021/01/02 10:58:38;;;;;;;22.77;7.43;;;6.00;90.10;;;;;;5012390;28;20029;-77
2021/01/02 11:01:05;;;;;;;26.48;9.00;;;6.00;90.40;;;;;;5012810;28;20028;-76
2021/01/02 11:03:31;;;;;;;27.48;10.13;;;6.00;90.10;;;;;;5013032;28;20018;-75
2021/01/02 11:05:58;;;;;;;24.10;7.30;;;6.00;90.10;;;;;;5012033;28;20025;-76
2021/01/02 11:08:23;;;;;;;19.95;7.60;;;6.10;90.00;;;;;;5027802;28;20455;-76
2021/01/02 11:10:49;;;;;;;31.73;8.90;;;6.10;90.00;;;;;;5012434;28;20097;-76
2021/01/02 11:13:14;;;;;;;25.52;9.65;;;6.20;89.90;;;;;;5012481;28;20028;-75
2021/01/02 11:15:40;;;;;;;25.42;9.85;;;6.20;89.70;;;;;;5012219;28;20014;-75
2021/01/02 11:18:06;;;;;;;22.20;7.93;;;6.20;89.60;;;;;;5012972;28;20065;-75
2021/01/02 11:20:31;;;;;;;27.02;11.68;;;6.20;89.60;;;;;;5035732;28;20112;-77
2021/01/02 11:22:57;;;;;;;27.67;9.73;;;6.20;90.10;;;;;;5031729;28;20021;-77
2021/01/02 11:25:22;;;;;;;23.20;9.27;;;6.20;89.70;;;;;;5032655;28;20471;-74
2021/01/02 11:27:48;;;;;;;27.20;9.73;;;6.10;90.20;;;;;;5031529;28;20033;-75
2021/01/02 11:30:14;;;;;;;18.00;7.45;;;6.20;89.80;;;;;;5032315;28;20053;-77
2021/01/02 11:32:41;;;;;;;22.38;8.68;;;6.20;89.70;;;;;;5031476;28;20079;-75
2021/01/02 11:35:07;;;;;;;32.70;8.93;;;6.30;89.60;;;;;;5031743;28;20117;-75
2021/01/02 11:37:33;;;;;;;23.25;7.78;;;6.30;89.60;;;;;;5031375;28;20029;-73
2021/01/02 11:39:59;;;;;;;24.52;8.18;;;6.30;89.70;;;;;;5031401;28;20100;-74
2021/01/02 11:42:24;;;;;;;28.60;9.02;;;6.30;89.60;;;;;;5014146;28;20112;-74
2021/01/02 11:44:50;;;;;;;25.48;9.02;;;6.40;89.50;;;;;;5031681;28;20097;-74
2021/01/02 11:47:16;;;;;;;23.40;8.35;;;6.40;89.50;;;;;;5047054;28;20037;-74
2021/01/02 11:49:41;;;;;;;25.88;9.25;;;6.40;89.70;;;;;;5048236;28;20021;-79
2021/01/02 11:52:08;;;;;;;21.20;7.85;;;6.30;89.60;;;;;;5032312;28;20069;-75
2021/01/02 11:54:34;;;;;;;24.88;8.15;;;6.30;89.80;;;;;;5018532;28;20017;-75
2021/01/02 11:57:01;;;;;;;19.45;7.30;;;6.30;89.80;;;;;;5031875;28;20026;-75
2021/01/02 11:59:27;;;;;;;25.95;7.30;;;6.30;89.80;;;;;;5014263;28;20013;-75
2021/01/02 12:02:00;;;;;;;28.08;7.53;;;6.40;89.70;;;;;;5012583;28;20107;-75
2021/01/02 12:04:27;;;;;;;20.08;7.53;;;6.40;89.60;;;;;;5031719;28;20455;-75
2021/01/02 12:06:54;;;;;;;23.23;9.27;;;6.40;89.50;;;;;;5031224;28;20029;-74
2021/01/02 12:09:23;;;;;;;22.40;7.25;;;6.40;89.60;;;;;;5031741;28;20136;-74
2021/01/02 12:11:49;;;;;;;22.45;9.60;;;6.40;89.60;;;;;;5031197;28;20021;-74
2021/01/02 12:14:18;;;;;;;19.10;8.07;;;6.40;89.70;;;;;;5013870;28;20041;-74
2021/01/02 12:16:50;;;;;;;16.92;7.00;;;6.40;89.80;;;;;;5017994;28;20454;-75
2021/01/02 12:19:20;;;;;;;;;;;6.40;89.80;;;;;;4994310;28;20443;-74
2021/01/02 12:21:45;;;;;;;20.88;7.35;;;6.30;89.90;;;;;;4993213;28;19901;-75
2021/01/02 12:24:12;;;;;;;21.75;6.68;;;6.30;89.80;;;;;;5011732;28;20040;-74
2021/01/02 12:26:52;;;;;;;22.73;7.50;;;6.30;89.90;;;;;;4994080;28;20463;-74
2021/01/02 12:29:21;;;;;;;28.30;8.43;;;6.40;89.80;;;;;;5013021;28;20030;-73
2021/01/02 12:31:51;;;;;;;22.33;6.47;;;6.40;90.00;;;;;;5013319;28;20057;-76
2021/01/02 12:34:26;;;;;;;22.75;7.18;;;6.40;89.90;;;;;;4995269;28;20022;-75
2021/01/02 12:36:52;;;;;;;24.00;6.53;;;6.40;89.80;;;;;;4994701;28;20352;-75
2021/01/02 12:39:28;;;;;;;18.88;7.20;;;6.40;89.90;;;;;;4995353;28;20022;-75
2021/01/02 12:41:54;;;;;;;19.58;5.55;;;6.40;89.90;;;;;;5011157;28;20388;-75
2021/01/02 12:44:23;;;;;;;19.42;5.82;;;6.40;89.90;;;;;;4994751;28;20579;-75
2021/01/02 12:46:52;;;;;;;21.80;6.85;;;6.40;89.90;;;;;;4993991;28;20030;-76
2021/01/02 12:49:22;;;;;;;19.50;7.00;;;6.40;90.00;;;;;;5016342;28;20018;-75
2021/01/02 12:51:48;;;;;;;25.95;8.55;;;6.40;90.00;;;;;;4999534;28;20025;-76
2021/01/02 12:54:14;;;;;;;20.98;7.88;;;6.40;90.00;;;;;;5031212;28;20018;-75
2021/01/02 12:56:44;;;;;;;22.10;7.75;;;6.40;90.00;;;;;;5015949;28;20026;-75
2021/01/02 12:59:10;;;;;;;19.85;7.35;;;6.40;90.00;;;;;;5015636;28;20097;-75
2021/01/02 13:01:40;;;;;;;19.35;6.88;;;6.30;90.00;;;;;;5014903;28;20096;-74
2021/01/02 13:04:07;;;;;;;19.27;6.47;;;6.40;90.00;;;;;;5014295;28;20199;-74
2021/01/02 13:06:33;;;;;;;18.02;5.68;;;6.40;90.00;;;;;;5014857;28;20423;-74
2021/01/02 13:08:59;;;;;;;23.15;8.32;;;6.40;90.00;;;;;;4996716;28;20358;-75